Terminal Aerodrome Forecast
Issued by NWS Austin/San Antonio, TX

Home | Current Version | Previous Version | Text Only | Print | Product List | Glossary On
Versions: 1 2 3 4 5 6 7 8 9 10 11 12 13 14 15 16
000
FTUS44 KEWX 292300
TAFSAT
TAF
KSAT 292331Z 3000/3106 15006KT P6SM FEW080 BKN250
     FM300130 04015G25KT P6SM SCT080 BKN250
     FM300200 06012KT P6SM SCT080 BKN250
     FM300400 14007KT P6SM SCT080 BKN200
     FM301400 18007KT P6SM SCT080 BKN200
     FM301700 17010G20KT P6SM SCT200
     FM310200 17015KT P6SM SCT150=

USA.gov is the U.S. government's official web portal to all federal, state and local government web resources and services.